sensor_id;sensor_type;location;lat;lon;timestamp;pressure;altitude;pressure_sealevel;temperature;humidity
71107;BME280;58763;47.982;11.516;2023-03-16T00:00:27;94474.53;;;2.31;79.47
71107;BME280;58763;47.982;11.516;2023-03-16T00:02:53;94477.78;;;2.33;79.29
71107;BME280;58763;47.982;11.516;2023-03-16T00:05:18;94491.47;;;2.36;79.08
71107;BME280;58763;47.982;11.516;2023-03-16T00:07:44;94459.34;;;2.43;78.58
71107;BME280;58763;47.982;11.516;2023-03-16T00:10:11;94462.81;;;2.43;78.45
71107;BME280;58763;47.982;11.516;2023-03-16T00:12:37;94464.31;;;2.39;78.40
71107;BME280;58763;47.982;11.516;2023-03-16T00:15:03;94468.50;;;2.35;78.60
71107;BME280;58763;47.982;11.516;2023-03-16T00:17:29;94466.63;;;2.36;78.53
71107;BME280;58763;47.982;11.516;2023-03-16T00:19:55;94464.09;;;2.41;78.42
71107;BME280;58763;47.982;11.516;2023-03-16T00:22:26;94466.19;;;2.39;78.20
71107;BME280;58763;47.982;11.516;2023-03-16T00:24:53;94456.75;;;2.36;78.27
71107;BME280;58763;47.982;11.516;2023-03-16T00:27:20;94455.75;;;2.37;78.57
71107;BME280;58763;47.982;11.516;2023-03-16T00:29:47;94460.84;;;2.39;78.43
71107;BME280;58763;47.982;11.516;2023-03-16T00:32:18;94465.47;;;2.32;78.08
71107;BME280;58763;47.982;11.516;2023-03-16T00:34:45;94461.53;;;2.34;77.77
71107;BME280;58763;47.982;11.516;2023-03-16T00:37:12;94470.59;;;2.33;77.93
71107;BME280;58763;47.982;11.516;2023-03-16T00:39:43;94450.59;;;2.36;77.76
71107;BME280;58763;47.982;11.516;2023-03-16T00:42:10;94443.22;;;2.38;77.46
71107;BME280;58763;47.982;11.516;2023-03-16T00:44:36;94451.31;;;2.43;77.46
71107;BME280;58763;47.982;11.516;2023-03-16T00:47:03;94458.19;;;2.50;77.32
71107;BME280;58763;47.982;11.516;2023-03-16T00:49:28;94453.81;;;2.56;77.22
71107;BME280;58763;47.982;11.516;2023-03-16T00:51:53;94444.72;;;2.45;77.42
71107;BME280;58763;47.982;11.516;2023-03-16T00:54:19;94445.53;;;2.46;77.18
71107;BME280;58763;47.982;11.516;2023-03-16T00:56:46;94450.88;;;2.46;77.26
71107;BME280;58763;47.982;11.516;2023-03-16T00:59:11;94438.59;;;2.45;77.44
71107;BME280;58763;47.982;11.516;2023-03-16T01:01:37;94443.69;;;2.46;77.56
71107;BME280;58763;47.982;11.516;2023-03-16T01:04:03;94440.66;;;2.43;77.29
71107;BME280;58763;47.982;11.516;2023-03-16T01:06:28;94431.16;;;2.47;77.22
71107;BME280;58763;47.982;11.516;2023-03-16T01:08:53;94440.19;;;2.46;77.00
71107;BME280;58763;47.982;11.516;2023-03-16T01:11:20;94439.75;;;2.49;76.75
71107;BME280;58763;47.982;11.516;2023-03-16T01:13:49;94444.81;;;2.27;76.76
71107;BME280;58763;47.982;11.516;2023-03-16T01:16:18;94453.72;;;2.21;76.83
71107;BME280;58763;47.982;11.516;2023-03-16T01:18:43;94446.41;;;2.17;77.29
71107;BME280;58763;47.982;11.516;2023-03-16T01:21:10;94444.09;;;2.20;77.45
71107;BME280;58763;47.982;11.516;2023-03-16T01:23:38;94442.25;;;2.32;77.03
71107;BME280;58763;47.982;11.516;2023-03-16T01:26:05;94448.41;;;2.33;76.90
71107;BME280;58763;47.982;11.516;2023-03-16T01:28:32;94433.44;;;2.32;76.71
71107;BME280;58763;47.982;11.516;2023-03-16T01:31:06;94439.47;;;2.27;76.72
71107;BME280;58763;47.982;11.516;2023-03-16T01:33:34;94441.78;;;2.24;77.03
71107;BME280;58763;47.982;11.516;2023-03-16T01:36:12;94444.59;;;2.29;77.35
71107;BME280;58763;47.982;11.516;2023-03-16T01:38:38;94443.97;;;2.27;77.33
71107;BME280;58763;47.982;11.516;2023-03-16T01:41:04;94439.00;;;2.19;77.69
71107;BME280;58763;47.982;11.516;2023-03-16T01:43:31;94435.75;;;2.17;77.93
71107;BME280;58763;47.982;11.516;2023-03-16T01:48:40;94427.94;;;2.15;77.62
71107;BME280;58763;47.982;11.516;2023-03-16T01:51:12;94427.38;;;2.13;77.25
71107;BME280;58763;47.982;11.516;2023-03-16T01:53:40;94421.88;;;2.08;77.84
71107;BME280;58763;47.982;11.516;2023-03-16T01:56:10;94428.19;;;2.14;77.46
71107;BME280;58763;47.982;11.516;2023-03-16T01:58:38;94432.00;;;2.18;77.47
71107;BME280;58763;47.982;11.516;2023-03-16T02:01:04;94415.88;;;2.13;77.65
71107;BME280;58763;47.982;11.516;2023-03-16T02:03:30;94426.69;;;2.18;77.75
71107;BME280;58763;47.982;11.516;2023-03-16T02:06:16;94421.81;;;2.15;77.33
71107;BME280;58763;47.982;11.516;2023-03-16T02:08:42;94418.78;;;2.11;77.59
71107;BME280;58763;47.982;11.516;2023-03-16T02:11:10;94415.28;;;2.10;77.78
71107;BME280;58763;47.982;11.516;2023-03-16T02:13:36;94427.16;;;2.15;77.46
71107;BME280;58763;47.982;11.516;2023-03-16T02:16:06;94420.34;;;2.30;76.81
71107;BME280;58763;47.982;11.516;2023-03-16T02:18:33;94429.00;;;2.14;77.41
71107;BME280;58763;47.982;11.516;2023-03-16T02:23:46;94424.69;;;2.13;77.58
71107;BME280;58763;47.982;11.516;2023-03-16T02:26:45;94422.13;;;2.06;77.46
71107;BME280;58763;47.982;11.516;2023-03-16T02:32:02;94415.25;;;2.29;77.06
71107;BME280;58763;47.982;11.516;2023-03-16T02:34:29;94416.28;;;2.28;76.98
71107;BME280;58763;47.982;11.516;2023-03-16T02:36:55;94408.69;;;2.13;77.08
71107;BME280;58763;47.982;11.516;2023-03-16T02:39:22;94415.78;;;2.07;77.27
71107;BME280;58763;47.982;11.516;2023-03-16T02:41:48;94417.38;;;2.08;77.66
71107;BME280;58763;47.982;11.516;2023-03-16T02:44:20;94421.50;;;1.93;77.80
71107;BME280;58763;47.982;11.516;2023-03-16T02:46:49;94411.88;;;1.92;78.06
71107;BME280;58763;47.982;11.516;2023-03-16T02:49:20;94428.69;;;1.92;77.95
71107;BME280;58763;47.982;11.516;2023-03-16T02:51:49;94422.06;;;1.83;77.76
71107;BME280;58763;47.982;11.516;2023-03-16T02:54:15;94420.16;;;1.72;77.95
71107;BME280;58763;47.982;11.516;2023-03-16T02:56:40;94415.41;;;1.74;78.37
71107;BME280;58763;47.982;11.516;2023-03-16T02:59:06;94422.06;;;1.83;77.98
71107;BME280;58763;47.982;11.516;2023-03-16T03:01:32;94424.44;;;1.73;77.81
71107;BME280;58763;47.982;11.516;2023-03-16T03:03:59;94423.41;;;1.74;78.03
71107;BME280;58763;47.982;11.516;2023-03-16T03:06:25;94418.47;;;1.60;78.15
71107;BME280;58763;47.982;11.516;2023-03-16T03:08:51;94413.13;;;1.60;78.52
71107;BME280;58763;47.982;11.516;2023-03-16T03:11:17;94411.88;;;1.62;78.40
71107;BME280;58763;47.982;11.516;2023-03-16T03:13:45;94410.66;;;1.76;78.01
71107;BME280;58763;47.982;11.516;2023-03-16T03:16:11;94409.53;;;1.84;77.68
71107;BME280;58763;47.982;11.516;2023-03-16T03:18:37;94411.25;;;1.78;77.16
71107;BME280;58763;47.982;11.516;2023-03-16T03:21:03;94409.03;;;1.75;76.83
71107;BME280;58763;47.982;11.516;2023-03-16T03:23:28;94410.06;;;1.74;76.69
71107;BME280;58763;47.982;11.516;2023-03-16T03:25:58;94404.38;;;1.71;76.94
71107;BME280;58763;47.982;11.516;2023-03-16T03:28:24;94404.75;;;1.74;76.58
71107;BME280;58763;47.982;11.516;2023-03-16T03:30:49;94402.25;;;1.61;76.50
71107;BME280;58763;47.982;11.516;2023-03-16T03:33:15;94407.00;;;1.59;77.01
71107;BME280;58763;47.982;11.516;2023-03-16T03:35:41;94413.56;;;1.57;77.42
71107;BME280;58763;47.982;11.516;2023-03-16T03:38:06;94409.22;;;1.62;77.30
71107;BME280;58763;47.982;11.516;2023-03-16T03:40:33;94411.88;;;1.62;76.96
71107;BME280;58763;47.982;11.516;2023-03-16T03:42:58;94414.81;;;1.72;76.25
71107;BME280;58763;47.982;11.516;2023-03-16T03:45:24;94400.53;;;1.67;76.56
71107;BME280;58763;47.982;11.516;2023-03-16T03:47:49;94412.13;;;1.61;76.15
71107;BME280;58763;47.982;11.516;2023-03-16T03:50:15;94406.78;;;1.61;76.50
71107;BME280;58763;47.982;11.516;2023-03-16T03:52:41;94405.00;;;1.55;77.01
71107;BME280;58763;47.982;11.516;2023-03-16T03:55:07;94408.72;;;1.54;77.06
71107;BME280;58763;47.982;11.516;2023-03-16T03:57:33;94412.47;;;1.64;76.53
71107;BME280;58763;47.982;11.516;2023-03-16T03:59:59;94398.72;;;1.49;77.00
71107;BME280;58763;47.982;11.516;2023-03-16T04:02:24;94404.06;;;1.49;76.94
71107;BME280;58763;47.982;11.516;2023-03-16T04:04:50;94414.25;;;1.52;76.77
71107;BME280;58763;47.982;11.516;2023-03-16T04:07:15;94409.59;;;1.48;76.73
71107;BME280;58763;47.982;11.516;2023-03-16T04:09:41;94397.19;;;1.42;77.21
71107;BME280;58763;47.982;11.516;2023-03-16T04:12:07;94403.19;;;1.37;77.51
71107;BME280;58763;47.982;11.516;2023-03-16T04:14:32;94393.88;;;1.28;78.07
71107;BME280;58763;47.982;11.516;2023-03-16T04:16:58;94390.81;;;1.24;78.54
71107;BME280;58763;47.982;11.516;2023-03-16T04:19:24;94392.59;;;1.12;78.79
71107;BME280;58763;47.982;11.516;2023-03-16T04:21:50;94394.25;;;0.95;79.27
71107;BME280;58763;47.982;11.516;2023-03-16T04:24:16;94398.53;;;0.96;79.60
71107;BME280;58763;47.982;11.516;2023-03-16T04:26:42;94398.38;;;0.91;79.63
71107;BME280;58763;47.982;11.516;2023-03-16T04:29:12;94399.03;;;0.87;80.02
71107;BME280;58763;47.982;11.516;2023-03-16T04:31:39;94397.78;;;0.89;79.83
71107;BME280;58763;47.982;11.516;2023-03-16T04:34:05;94399.50;;;0.84;80.10
71107;BME280;58763;47.982;11.516;2023-03-16T04:36:30;94401.66;;;0.93;79.74
71107;BME280;58763;47.982;11.516;2023-03-16T04:38:57;94409.09;;;1.03;79.51
71107;BME280;58763;47.982;11.516;2023-03-16T04:41:22;94415.75;;;0.94;79.20
71107;BME280;58763;47.982;11.516;2023-03-16T04:43:48;94401.69;;;0.87;79.75
71107;BME280;58763;47.982;11.516;2023-03-16T04:46:13;94403.09;;;0.89;79.54
71107;BME280;58763;47.982;11.516;2023-03-16T04:48:39;94402.00;;;0.97;79.27
71107;BME280;58763;47.982;11.516;2023-03-16T04:51:05;94384.13;;;0.86;79.23
71107;BME280;58763;47.982;11.516;2023-03-16T04:53:31;94400.44;;;0.89;79.42
71107;BME280;58763;47.982;11.516;2023-03-16T04:55:57;94393.94;;;0.85;79.47
71107;BME280;58763;47.982;11.516;2023-03-16T04:58:22;94383.22;;;0.74;79.97
71107;BME280;58763;47.982;11.516;2023-03-16T05:00:51;94380.63;;;0.67;80.38
71107;BME280;58763;47.982;11.516;2023-03-16T05:03:17;94383.13;;;0.62;80.54
71107;BME280;58763;47.982;11.516;2023-03-16T05:05:44;94381.13;;;0.57;80.32
71107;BME280;58763;47.982;11.516;2023-03-16T05:08:10;94388.50;;;0.55;80.95
71107;BME280;58763;47.982;11.516;2023-03-16T05:10:37;94380.72;;;0.54;80.99
71107;BME280;58763;47.982;11.516;2023-03-16T05:13:03;94375.56;;;0.41;81.07
71107;BME280;58763;47.982;11.516;2023-03-16T05:15:29;94374.38;;;0.37;81.23
71107;BME280;58763;47.982;11.516;2023-03-16T05:17:55;94374.78;;;0.34;81.50
71107;BME280;58763;47.982;11.516;2023-03-16T05:20:21;94365.84;;;0.28;81.82
71107;BME280;58763;47.982;11.516;2023-03-16T05:22:47;94364.72;;;0.18;81.98
71107;BME280;58763;47.982;11.516;2023-03-16T05:25:14;94362.38;;;0.03;82.67
71107;BME280;58763;47.982;11.516;2023-03-16T05:27:44;94356.56;;;0.13;82.64
71107;BME280;58763;47.982;11.516;2023-03-16T05:30:10;94357.22;;;0.08;82.77
71107;BME280;58763;47.982;11.516;2023-03-16T05:32:37;94368.88;;;0.07;82.82
71107;BME280;58763;47.982;11.516;2023-03-16T05:35:04;94360.25;;;-0.13;83.57
71107;BME280;58763;47.982;11.516;2023-03-16T05:37:29;94360.19;;;-0.07;83.15
71107;BME280;58763;47.982;11.516;2023-03-16T05:39:56;94368.13;;;0.00;83.40
71107;BME280;58763;47.982;11.516;2023-03-16T05:42:23;94366.50;;;-0.01;83.46
71107;BME280;58763;47.982;11.516;2023-03-16T05:44:52;94363.63;;;0.00;83.18
71107;BME280;58763;47.982;11.516;2023-03-16T05:47:19;94367.16;;;-0.06;83.64
71107;BME280;58763;47.982;11.516;2023-03-16T05:49:45;94369.00;;;-0.06;84.06
71107;BME280;58763;47.982;11.516;2023-03-16T05:52:10;94366.75;;;-0.09;84.18
71107;BME280;58763;47.982;11.516;2023-03-16T05:54:36;94371.94;;;-0.14;84.51
71107;BME280;58763;47.982;11.516;2023-03-16T05:57:01;94372.94;;;-0.15;84.45
71107;BME280;58763;47.982;11.516;2023-03-16T05:59:27;94368.63;;;-0.10;84.49
71107;BME280;58763;47.982;11.516;2023-03-16T06:01:52;94370.75;;;-0.25;84.79
71107;BME280;58763;47.982;11.516;2023-03-16T06:04:18;94371.41;;;-0.29;85.63
71107;BME280;58763;47.982;11.516;2023-03-16T06:06:43;94366.19;;;-0.42;85.81
71107;BME280;58763;47.982;11.516;2023-03-16T06:09:09;94364.31;;;-0.35;86.06
71107;BME280;58763;47.982;11.516;2023-03-16T06:11:34;94359.50;;;-0.51;86.98
71107;BME280;58763;47.982;11.516;2023-03-16T06:14:00;94370.44;;;-0.41;86.30
71107;BME280;58763;47.982;11.516;2023-03-16T06:16:26;94367.72;;;-0.28;86.20
71107;BME280;58763;47.982;11.516;2023-03-16T06:18:52;94365.53;;;-0.38;86.93
71107;BME280;58763;47.982;11.516;2023-03-16T06:21:17;94371.31;;;-0.47;87.84
71107;BME280;58763;47.982;11.516;2023-03-16T06:23:42;94376.81;;;-0.42;87.77
71107;BME280;58763;47.982;11.516;2023-03-16T06:26:08;94380.75;;;-0.58;88.51
71107;BME280;58763;47.982;11.516;2023-03-16T06:28:33;94372.78;;;-0.58;88.55
71107;BME280;58763;47.982;11.516;2023-03-16T06:30:59;94364.66;;;-0.63;88.72
71107;BME280;58763;47.982;11.516;2023-03-16T06:33:25;94372.00;;;-0.58;88.64
71107;BME280;58763;47.982;11.516;2023-03-16T06:35:50;94387.69;;;-0.50;89.20
71107;BME280;58763;47.982;11.516;2023-03-16T06:38:17;94382.69;;;-0.34;88.93
71107;BME280;58763;47.982;11.516;2023-03-16T06:40:42;94379.19;;;-0.34;88.73
71107;BME280;58763;47.982;11.516;2023-03-16T06:43:08;94386.31;;;-0.28;88.31
71107;BME280;58763;47.982;11.516;2023-03-16T06:45:34;94377.78;;;-0.37;88.51
71107;BME280;58763;47.982;11.516;2023-03-16T06:47:59;94385.50;;;-0.29;88.94
71107;BME280;58763;47.982;11.516;2023-03-16T06:50:25;94382.56;;;-0.14;88.25
71107;BME280;58763;47.982;11.516;2023-03-16T06:52:51;94375.78;;;-0.10;88.39
71107;BME280;58763;47.982;11.516;2023-03-16T06:55:16;94381.69;;;-0.08;88.35
71107;BME280;58763;47.982;11.516;2023-03-16T06:57:42;94384.50;;;-0.03;87.81
71107;BME280;58763;47.982;11.516;2023-03-16T07:00:09;94383.09;;;-0.06;87.83
71107;BME280;58763;47.982;11.516;2023-03-16T07:02:36;94372.78;;;-0.20;88.53
71107;BME280;58763;47.982;11.516;2023-03-16T07:05:04;94381.81;;;-0.28;88.95
71107;BME280;58763;47.982;11.516;2023-03-16T07:07:29;94383.88;;;-0.30;89.35
71107;BME280;58763;47.982;11.516;2023-03-16T07:09:55;94374.47;;;-0.26;89.50
71107;BME280;58763;47.982;11.516;2023-03-16T07:12:20;94381.38;;;-0.25;89.25
71107;BME280;58763;47.982;11.516;2023-03-16T07:14:45;94372.22;;;-0.29;89.59
71107;BME280;58763;47.982;11.516;2023-03-16T07:17:11;94369.28;;;-0.21;89.72
71107;BME280;58763;47.982;11.516;2023-03-16T07:19:36;94368.63;;;-0.16;89.69
71107;BME280;58763;47.982;11.516;2023-03-16T07:22:02;94368.03;;;-0.18;89.43
71107;BME280;58763;47.982;11.516;2023-03-16T07:24:27;94370.22;;;-0.09;89.67
71107;BME280;58763;47.982;11.516;2023-03-16T07:26:52;94369.91;;;0.06;89.13
71107;BME280;58763;47.982;11.516;2023-03-16T07:29:18;94374.25;;;0.25;88.20
71107;BME280;58763;47.982;11.516;2023-03-16T07:31:44;94377.41;;;0.16;88.61
71107;BME280;58763;47.982;11.516;2023-03-16T07:34:10;94378.53;;;0.26;88.14
71107;BME280;58763;47.982;11.516;2023-03-16T07:36:36;94382.94;;;0.39;88.10
71107;BME280;58763;47.982;11.516;2023-03-16T07:39:02;94384.78;;;0.38;87.91
71107;BME280;58763;47.982;11.516;2023-03-16T07:41:28;94385.84;;;0.55;87.24
71107;BME280;58763;47.982;11.516;2023-03-16T07:43:53;94377.38;;;0.65;87.97
71107;BME280;58763;47.982;11.516;2023-03-16T07:46:19;94389.25;;;0.62;86.80
71107;BME280;58763;47.982;11.516;2023-03-16T07:48:44;94389.34;;;0.56;86.79
71107;BME280;58763;47.982;11.516;2023-03-16T07:51:11;94392.75;;;0.63;86.79
71107;BME280;58763;47.982;11.516;2023-03-16T07:53:38;94383.22;;;0.74;86.62
71107;BME280;58763;47.982;11.516;2023-03-16T07:56:04;94391.19;;;0.74;86.56
71107;BME280;58763;47.982;11.516;2023-03-16T07:58:30;94393.34;;;0.65;86.49
71107;BME280;58763;47.982;11.516;2023-03-16T08:00:57;94395.34;;;0.69;86.32
71107;BME280;58763;47.982;11.516;2023-03-16T08:03:23;94402.53;;;0.44;86.72
71107;BME280;58763;47.982;11.516;2023-03-16T08:05:49;94397.81;;;0.46;87.40
71107;BME280;58763;47.982;11.516;2023-03-16T08:08:16;94404.75;;;0.47;87.89
71107;BME280;58763;47.982;11.516;2023-03-16T08:10:41;94404.28;;;0.32;87.57
71107;BME280;58763;47.982;11.516;2023-03-16T08:13:07;94406.22;;;0.43;87.47
71107;BME280;58763;47.982;11.516;2023-03-16T08:15:32;94406.66;;;0.40;87.90
71107;BME280;58763;47.982;11.516;2023-03-16T08:17:58;94418.28;;;0.46;87.39
71107;BME280;58763;47.982;11.516;2023-03-16T08:20:27;94411.78;;;0.42;87.22
71107;BME280;58763;47.982;11.516;2023-03-16T08:22:52;94418.03;;;0.47;86.50
71107;BME280;58763;47.982;11.516;2023-03-16T08:25:18;94419.94;;;0.40;87.32
71107;BME280;58763;47.982;11.516;2023-03-16T08:27:44;94414.38;;;0.48;87.70
71107;BME280;58763;47.982;11.516;2023-03-16T08:30:11;94411.16;;;0.64;87.56
71107;BME280;58763;47.982;11.516;2023-03-16T08:32:37;94419.50;;;0.68;86.87
71107;BME280;58763;47.982;11.516;2023-03-16T08:35:11;94415.00;;;0.68;86.97
71107;BME280;58763;47.982;11.516;2023-03-16T08:37:41;94413.97;;;0.88;87.15
71107;BME280;58763;47.982;11.516;2023-03-16T08:40:08;94424.34;;;1.14;86.79
71107;BME280;58763;47.982;11.516;2023-03-16T08:42:38;94420.44;;;1.34;86.47
71107;BME280;58763;47.982;11.516;2023-03-16T08:45:07;94420.56;;;1.58;87.08
71107;BME280;58763;47.982;11.516;2023-03-16T08:47:37;94414.31;;;1.64;85.27
71107;BME280;58763;47.982;11.516;2023-03-16T08:50:05;94411.56;;;1.70;84.40
71107;BME280;58763;47.982;11.516;2023-03-16T08:52:32;94411.97;;;1.85;84.13
71107;BME280;58763;47.982;11.516;2023-03-16T08:54:58;94401.03;;;2.05;83.47
71107;BME280;58763;47.982;11.516;2023-03-16T08:57:24;94412.28;;;2.07;83.93
71107;BME280;58763;47.982;11.516;2023-03-16T08:59:52;94398.97;;;2.19;82.81
71107;BME280;58763;47.982;11.516;2023-03-16T09:02:17;94402.81;;;2.23;81.04
71107;BME280;58763;47.982;11.516;2023-03-16T09:04:43;94403.59;;;2.12;80.77
71107;BME280;58763;47.982;11.516;2023-03-16T09:07:10;94408.16;;;2.34;82.79
71107;BME280;58763;47.982;11.516;2023-03-16T09:09:36;94393.97;;;2.22;81.28
71107;BME280;58763;47.982;11.516;2023-03-16T09:12:01;94412.19;;;2.14;80.88
71107;BME280;58763;47.982;11.516;2023-03-16T09:14:28;94403.97;;;2.27;82.04
71107;BME280;58763;47.982;11.516;2023-03-16T09:16:54;94396.13;;;2.55;82.80
71107;BME280;58763;47.982;11.516;2023-03-16T09:19:20;94399.28;;;2.75;82.71
71107;BME280;58763;47.982;11.516;2023-03-16T09:21:47;94386.25;;;2.78;80.41
71107;BME280;58763;47.982;11.516;2023-03-16T09:24:12;94396.81;;;2.85;79.09
71107;BME280;58763;47.982;11.516;2023-03-16T09:26:39;94404.03;;;2.73;79.95
71107;BME280;58763;47.982;11.516;2023-03-16T09:29:04;94389.88;;;2.84;79.89
71107;BME280;58763;47.982;11.516;2023-03-16T09:31:31;94388.91;;;3.02;80.56
71107;BME280;58763;47.982;11.516;2023-03-16T09:33:57;94392.25;;;3.20;79.92
71107;BME280;58763;47.982;11.516;2023-03-16T09:36:24;94392.78;;;3.45;77.54
71107;BME280;58763;47.982;11.516;2023-03-16T09:38:49;94396.16;;;3.81;77.64
71107;BME280;58763;47.982;11.516;2023-03-16T09:41:25;94396.59;;;3.89;75.77
71107;BME280;58763;47.982;11.516;2023-03-16T09:44:14;94396.34;;;4.19;77.13
71107;BME280;58763;47.982;11.516;2023-03-16T09:46:44;94405.25;;;4.41;76.83
71107;BME280;58763;47.982;11.516;2023-03-16T09:49:12;94406.19;;;4.47;76.57
71107;BME280;58763;47.982;11.516;2023-03-16T09:56:47;94412.25;;;4.42;73.98
71107;BME280;58763;47.982;11.516;2023-03-16T09:59:14;94405.88;;;4.43;75.25
71107;BME280;58763;47.982;11.516;2023-03-16T10:01:55;94395.94;;;4.60;74.56
71107;BME280;58763;47.982;11.516;2023-03-16T10:04:37;94399.72;;;4.76;72.28
71107;BME280;58763;47.982;11.516;2023-03-16T10:10:00;94390.84;;;4.92;72.44
71107;BME280;58763;47.982;11.516;2023-03-16T10:12:32;94393.06;;;5.17;71.95
71107;BME280;58763;47.982;11.516;2023-03-16T10:15:05;94386.91;;;5.38;71.81
71107;BME280;58763;47.982;11.516;2023-03-16T10:17:42;94386.94;;;5.59;70.69
71107;BME280;58763;47.982;11.516;2023-03-16T10:20:14;94390.56;;;5.92;70.96
71107;BME280;58763;47.982;11.516;2023-03-16T10:22:44;94394.16;;;6.02;67.55
71107;BME280;58763;47.982;11.516;2023-03-16T10:27:57;94382.81;;;5.95;67.80
71107;BME280;58763;47.982;11.516;2023-03-16T10:30:34;94377.09;;;6.13;67.06
71107;BME280;58763;47.982;11.516;2023-03-16T10:33:16;94386.72;;;6.09;66.84
71107;BME280;58763;47.982;11.516;2023-03-16T10:35:47;94381.63;;;6.35;67.75
71107;BME280;58763;47.982;11.516;2023-03-16T10:41:04;94368.03;;;6.83;67.07
71107;BME280;58763;47.982;11.516;2023-03-16T10:43:30;94361.25;;;7.12;65.31
71107;BME280;58763;47.982;11.516;2023-03-16T10:46:00;94362.88;;;7.13;65.82
71107;BME280;58763;47.982;11.516;2023-03-16T10:48:26;94364.06;;;7.32;64.25
71107;BME280;58763;47.982;11.516;2023-03-16T10:50:56;94355.28;;;7.52;62.81
71107;BME280;58763;47.982;11.516;2023-03-16T10:53:24;94365.25;;;7.56;61.87
71107;BME280;58763;47.982;11.516;2023-03-16T10:55:57;94352.16;;;7.80;62.47
71107;BME280;58763;47.982;11.516;2023-03-16T10:58:32;94351.94;;;7.92;61.20
71107;BME280;58763;47.982;11.516;2023-03-16T11:00:58;94346.59;;;8.07;60.15
71107;BME280;58763;47.982;11.516;2023-03-16T11:03:30;94336.97;;;8.26;58.47
71107;BME280;58763;47.982;11.516;2023-03-16T11:06:04;94338.56;;;8.27;57.13
71107;BME280;58763;47.982;11.516;2023-03-16T11:08:37;94329.69;;;8.31;58.79
71107;BME280;58763;47.982;11.516;2023-03-16T11:13:49;94322.72;;;8.66;57.96
71107;BME280;58763;47.982;11.516;2023-03-16T11:16:30;94313.25;;;8.78;59.93
71107;BME280;58763;47.982;11.516;2023-03-16T11:19:09;94317.03;;;8.62;57.92
71107;BME280;58763;47.982;11.516;2023-03-16T11:24:49;94308.66;;;8.23;56.62
71107;BME280;58763;47.982;11.516;2023-03-16T11:27:37;94312.16;;;8.19;56.78
71107;BME280;58763;47.982;11.516;2023-03-16T11:30:26;94306.75;;;8.19;57.56
71107;BME280;58763;47.982;11.516;2023-03-16T11:32:53;94308.66;;;8.23;57.11
71107;BME280;58763;47.982;11.516;2023-03-16T11:35:23;94306.75;;;8.24;57.46
71107;BME280;58763;47.982;11.516;2023-03-16T11:41:02;94294.16;;;8.45;57.64
71107;BME280;58763;47.982;11.516;2023-03-16T11:43:54;94293.84;;;8.66;57.83
71107;BME280;58763;47.982;11.516;2023-03-16T11:46:28;94291.16;;;8.61;55.60
71107;BME280;58763;47.982;11.516;2023-03-16T11:52:11;94283.06;;;8.66;57.26
71107;BME280;58763;47.982;11.516;2023-03-16T11:55:47;94268.78;;;8.71;56.02
71107;BME280;58763;47.982;11.516;2023-03-16T11:57:49;94272.03;;;8.58;55.16
71107;BME280;58763;47.982;11.516;2023-03-16T12:00:24;94265.00;;;8.77;55.95
71107;BME280;58763;47.982;11.516;2023-03-16T12:11:12;94258.75;;;9.07;54.24
71107;BME280;58763;47.982;11.516;2023-03-16T12:16:43;94250.13;;;9.04;52.53
71107;BME280;58763;47.982;11.516;2023-03-16T12:19:33;94245.72;;;9.29;53.25
71107;BME280;58763;47.982;11.516;2023-03-16T12:22:27;94240.03;;;9.35;51.69
71107;BME280;58763;47.982;11.516;2023-03-16T12:24:53;94238.38;;;9.44;54.07
71107;BME280;58763;47.982;11.516;2023-03-16T12:27:28;94235.69;;;9.44;54.03
71107;BME280;58763;47.982;11.516;2023-03-16T12:30:26;94228.31;;;9.55;52.66
71107;BME280;58763;47.982;11.516;2023-03-16T12:33:05;94234.22;;;9.62;52.16
71107;BME280;58763;47.982;11.516;2023-03-16T12:38:23;94240.69;;;9.66;52.80
71107;BME280;58763;47.982;11.516;2023-03-16T12:47:23;94227.66;;;9.78;52.13
71107;BME280;58763;47.982;11.516;2023-03-16T12:49:52;94223.59;;;9.81;52.59
71107;BME280;58763;47.982;11.516;2023-03-16T12:52:20;94226.59;;;9.74;50.89
71107;BME280;58763;47.982;11.516;2023-03-16T12:55:38;94214.56;;;10.00;51.60
71107;BME280;58763;47.982;11.516;2023-03-16T12:57:41;94224.75;;;10.13;51.96
71107;BME280;58763;47.982;11.516;2023-03-16T13:00:09;94218.28;;;10.09;51.36
71107;BME280;58763;47.982;11.516;2023-03-16T13:02:38;94214.50;;;10.10;52.61
71107;BME280;58763;47.982;11.516;2023-03-16T13:05:13;94208.22;;;10.20;51.76
71107;BME280;58763;47.982;11.516;2023-03-16T13:07:48;94202.81;;;10.20;51.27
71107;BME280;58763;47.982;11.516;2023-03-16T13:10:16;94212.44;;;10.36;50.47
71107;BME280;58763;47.982;11.516;2023-03-16T13:12:45;94203.94;;;10.48;50.27
71107;BME280;58763;47.982;11.516;2023-03-16T13:17:46;94201.88;;;10.34;49.65
71107;BME280;58763;47.982;11.516;2023-03-16T13:22:42;94206.44;;;10.39;47.70
71107;BME280;58763;47.982;11.516;2023-03-16T13:25:21;94200.00;;;10.35;47.61
71107;BME280;58763;47.982;11.516;2023-03-16T13:27:51;94198.84;;;10.41;47.69
71107;BME280;58763;47.982;11.516;2023-03-16T13:32:45;94208.59;;;10.71;49.77
71107;BME280;58763;47.982;11.516;2023-03-16T13:35:13;94202.44;;;10.89;50.31
71107;BME280;58763;47.982;11.516;2023-03-16T13:37:41;94203.91;;;11.05;48.22
71107;BME280;58763;47.982;11.516;2023-03-16T13:40:18;94210.19;;;11.24;48.82
71107;BME280;58763;47.982;11.516;2023-03-16T13:42:48;94211.84;;;11.20;46.56
71107;BME280;58763;47.982;11.516;2023-03-16T13:45:20;94204.16;;;11.27;46.50
71107;BME280;58763;47.982;11.516;2023-03-16T13:47:47;94199.81;;;11.31;46.05
71107;BME280;58763;47.982;11.516;2023-03-16T13:50:14;94211.22;;;11.28;46.75
71107;BME280;58763;47.982;11.516;2023-03-16T13:52:40;94208.28;;;11.25;46.06
71107;BME280;58763;47.982;11.516;2023-03-16T13:55:16;94194.91;;;11.33;46.00
71107;BME280;58763;47.982;11.516;2023-03-16T13:57:43;94186.25;;;11.55;45.09
71107;BME280;58763;47.982;11.516;2023-03-16T14:00:14;94184.91;;;11.10;42.67
71107;BME280;58763;47.982;11.516;2023-03-16T14:02:41;94192.03;;;11.25;44.88
71107;BME280;58763;47.982;11.516;2023-03-16T14:05:15;94188.13;;;11.36;44.61